Tuesday, July 29, 2014
08:48 UTC
  |  Log In   |  Register Free
Airport Search:

Shenandoah Valley Regional Airport
(KSHD)

Shenandoah Valley Regional Airport Diagram
No Airport Diagram Available

FAA data valid effective July 24, 2014 until September 18, 2014 (unless otherwise noted).

 
 
 
 
 
 
 
 
 
 
 
 
 
 

Current Aviation Weather for Shenandoah Valley Regional Airport (KSHD)

The most recent METAR observation for KSHD was updated at: 1835 UTC
METAR Summary (Translated METAR)
KSHD
281835Z AUTO 27008G18KT 10SM OVC060 24/11 A2981 RMK AO2 T02360112
KCHO
(22.2 nm SE from KSHD)
281753Z 29007KT 10SM BKN085 27/13 A2975 RMK AO2 SLP065 T02670128 10278 20244 51010
TAF Summary (Translated TAF)
KCHO
(22.2 nm SE from KSHD)
290530Z 2906/3006 VRB03KT P6SM SCT090 FM291400 34007KT P6SM SCT090 FM292300 VRB03KT P6SM SCT050
  Airport Weather Conditions for KSHD

 Current Weather at SHD
54° F
Fair
North winds at 0.0 mph
SHD NOAA Radar

Pressure: 29.94 in
Humidity: 90%
Wind: Calm
Dew Point: 50.7°F
Visibility: 7.00 mi


Airport Weather Forecast for KSHD

Translated METAR and TAF for KSHD
Translated METAR for KSHD (0842 UTC 29 July 2014)
found at http://aviationweather.gov/adds/metars/
 
METAR text: KSHD 290835Z AUTO 00000KT 7SM CLR 12/10 A2994 RMK AO2 T01190101
Conditions at: KSHD (STAUNTON/SHENAND, VA, US) observed 0835 UTC 29 July 2014
Temperature: 11.9°C (53°F)
Dewpoint: 10.1°C (50°F) [RH = 89%]
Pressure (altimeter): 29.94 inches Hg (1014.0 mb)
Winds: calm
Visibility: 7 miles (11 km)
Ceiling: at least 12,000 feet AGL
Clouds: sky clear below 12,000 feet AGL
Weather: automated observation with no human augmentation;
there may or may not be significant weather present at this time
Translated TAF for KSHD

There is no translated TAF available for this airport

Find All Airport Services Find A Hotel Find A Rental Car Find A Golf Course Find A Restaurant $100 Hamburger



FBO's on the Field
FBO Company Facility Photos Services Transportation Aviation Fuel Prices: Prices include tax
Catering Weather Repair Courtesy Rental Type 100LL JetA JetA+ MOGAS 8087
 
Avnet Shenandoah Valley

This FBO has not yet been rated
FS:Avfuel
Last Updated: Jul-22
Login to update fuel prices
SS:
Contact Avnet Shenandoah ValleyMore FBO Information
 
Add another FBO Facility Photos Catering Weather Repair Courtesy Rental Type 100LL JetA JetA+ MOGAS 8087
Services Transportation Aviation Fuel Prices: Prices include tax


GlobalAir.com Airport Resource Center model-print
model-print
model-print
model-print